Airfield :







YOU CAN JOIN US ON...

 
LOGIN :

Register | Disclaimer

   EN    FR    IT 

 









Legend :    VFR   Marginal VFR   IFR   Intensive IFR   Very Intensive IFR
Visi :
Ceiling :
>= 8 km
>= 3000ft
5 to 8 km
1000 to 3000 ft
1500m to 5 km
500 to 1000 ft
800 to 1500m
200 to 500 ft
< 800m
< 200 ft
Symbols :   Thunderstorms  Fog  Heavy snow  Heavy precipitations  Wind > 20 kt






- Airport Elevation : 121 ft
- IATA code : YBX


CYBX - Lourdes De Blanc Sablon

CURRENT METAR :
  • 110200Z 22008KT 1/8SM -DZ FG VV002 03/03 A2936 RMK FG8 SLP944

EXPIRED METARs :
  • 110100Z 21012G18KT 1/4SM -DZ FG VV002 03/03 A2939 RMK FG8 SLP955
  • 110000Z 22013G20KT 1/4SM -DZ FG VV002 03/03 A2942 RMK FG8 SLP966

TAF TAF CYBX
Valid from the 11 at 02:00 until the 11 at 14:00 UTC


110138Z 1102/1114 22015G25KT 1/4SM -DZ FG VV002
TEMPO 1102/1105 1SM BR OVC004
FM110500 24020G30KT P6SM SCT008 BKN025
TEMPO 1105/1107 5SM -RA BR BKN007 OVC020
FM110900 24025G40KT P6SM SCT030 BKN240
BECMG 1110/1112 29020G30KT RMK NXT FCST BY 110800Z



MET'MAP, your aeronautical weather chart ! - Copyright ORBIFLY December 2007 - Disclaimer

ORBIFLY MET'MAP TEAM :

Programming & Development : Alexandra Zaïnal
Concept & original design : Baudouin d'Aumeries
Assistance for programming : Marc-Olivier Méhu
Technical & hardware support : Manuel Goepfert

Contact : metmap@orbifly.com




SOURCES & CREDITS :

   NOAA